Time;durP1;ratioP1;P1;durP2;ratioP2;P2;SDS_P1;SDS_P2;PMS_P1;PMS_P2;Temp;Humidity;BMP_temperature;BMP_pressure;BME280_temperature;BME280_humidity;BME280_pressure;Samples;Min_cycle;Max_cycle;Signal;HPM_P1;HPM_P2
2022/04/16 00:01:52;;;;;;;6.78;3.95;;;;;;;9.49;70.92;98717.13;6212683;22;19924;-87
2022/04/16 00:04:19;;;;;;;6.65;3.92;;;;;;;9.33;71.27;98719.06;6189611;22;20045;-86
2022/04/16 00:06:45;;;;;;;8.10;4.40;;;;;;;9.37;72.69;98771.66;6189473;23;20031;-86
2022/04/16 00:09:10;;;;;;;;;;;;;;;9.30;74.22;98785.53;6214399;22;20009;-86
2022/04/16 00:11:38;;;;;;;7.53;4.03;;;;;;;9.05;75.05;98775.50;6212772;22;19900;-88
2022/04/16 00:14:04;;;;;;;8.15;4.43;;;;;;;9.06;75.67;98777.22;6189755;23;19988;-88
2022/04/16 00:16:31;;;;;;;6.80;4.35;;;;;;;8.99;76.50;98764.38;6239652;22;20025;-88
2022/04/16 00:18:58;;;;;;;6.97;4.15;;;;;;;9.05;77.04;98741.88;6164267;23;20019;-86
2022/04/16 00:21:26;;;;;;;;;;;;;;;9.40;76.37;98779.38;6293575;22;20107;-86
2022/04/16 00:23:53;;;;;;;6.57;4.07;;;;;;;9.13;74.84;98741.78;6213553;23;19895;-88
2022/04/16 00:26:21;;;;;;;6.57;3.80;;;;;;;9.45;75.20;98784.50;6180186;22;20376;-86
2022/04/16 00:28:48;;;;;;;10.93;5.00;;;;;;;9.49;74.66;98781.00;6289992;22;20029;-87
2022/04/16 00:31:15;;;;;;;7.03;4.55;;;;;;;9.35;74.27;98753.56;6290892;22;20046;-87
2022/04/16 00:33:40;;;;;;;;;;;;;;;9.42;72.39;98786.22;6341526;22;20006;-87
2022/04/16 00:36:07;;;;;;;7.57;4.95;;;;;;;9.02;74.20;98759.16;6340169;22;19918;-87
2022/04/16 00:38:33;;;;;;;8.05;5.00;;;;;;;8.85;75.55;98736.94;6340585;22;19983;-86
2022/04/16 00:41:02;;;;;;;;;;;;;;;9.18;76.81;98781.38;6315739;22;20015;-87
2022/04/16 00:43:28;;;;;;;8.52;4.80;;;;;;;9.05;76.80;98749.63;6315439;22;19916;-87
2022/04/16 00:48:26;;;;;;;7.28;5.25;;;;;;;9.02;76.07;98739.31;6367099;22;19946;-86
2022/04/16 00:50:53;;;;;;;8.57;5.43;;;;;;;9.14;76.71;98772.81;6288496;22;20058;-86
2022/04/16 00:53:21;;;;;;;7.72;4.70;;;;;;;9.10;77.55;98747.84;6314159;22;20106;-86
2022/04/16 00:55:47;;;;;;;6.78;4.57;;;;;;;9.26;77.63;98768.38;6339858;22;19999;-86
2022/04/16 00:58:12;;;;;;;;;;;;;;;9.40;76.69;98781.97;6340641;22;20003;-85
2022/04/16 01:00:39;;;;;;;8.13;5.43;;;;;;;9.39;76.48;98785.41;6313674;22;19891;-88
2022/04/16 01:03:07;;;;;;;5.57;4.15;;;;;;;9.45;75.73;98775.00;6288535;22;20017;-87
2022/04/16 01:05:46;;;;;;;6.82;4.88;;;;;;;9.55;75.03;98760.19;6293976;22;19995;-87
2022/04/16 01:08:20;;;;;;;8.43;4.90;;;;;;;9.60;74.37;98753.19;6315645;22;19994;-88
2022/04/16 01:10:52;;;;;;;8.13;4.65;;;;;;;9.54;73.35;98761.06;6289876;22;20018;-87
2022/04/16 01:13:22;;;;;;;9.32;5.05;;;;;;;9.52;74.69;98762.81;6316131;22;20003;-87
2022/04/16 01:15:51;;;;;;;8.05;5.05;;;;;;;9.35;74.54;98750.13;6288971;22;20010;-88
2022/04/16 01:18:17;;;;;;;6.20;4.60;;;;;;;9.14;75.11;98748.66;6314475;22;20017;-86
2022/04/16 01:20:44;;;;;;;7.80;5.10;;;;;;;9.19;76.28;98743.44;6314800;22;19986;-86
2022/04/16 01:23:16;;;;;;;8.27;5.07;;;;;;;9.28;76.43;98762.28;6317217;22;20010;-86
2022/04/16 01:25:43;;;;;;;7.60;5.10;;;;;;;9.39;76.21;98765.59;6225988;22;20013;-86
2022/04/16 01:31:26;;;;;;;10.52;4.95;;;;;;;9.39;74.36;98738.81;6322070;22;20014;-87
2022/04/16 01:34:14;;;;;;;8.05;5.07;;;;;;;9.59;74.29;98756.69;6325886;22;19998;-86
2022/04/16 01:37:02;;;;;;;7.55;4.82;;;;;;;9.63;73.48;98761.78;6320130;22;20018;-87
2022/04/16 01:39:31;;;;;;;6.22;4.60;;;;;;;9.76;73.32;98753.81;6316276;22;20018;-86
2022/04/16 01:41:57;;;;;;;6.65;5.20;;;;;;;9.65;72.20;98749.66;6315159;22;20013;-87
2022/04/16 01:44:44;;;;;;;7.13;4.70;;;;;;;9.33;73.12;98707.84;6317861;22;20005;-87
2022/04/16 01:47:10;;;;;;;;;;;;;;;9.74;72.72;98750.41;6316648;22;19999;-87
2022/04/16 01:49:38;;;;;;;7.07;5.55;;;;;;;9.52;71.51;98730.00;6316338;22;19910;-87
2022/04/16 01:52:10;;;;;;;8.43;5.75;;;;;;;9.58;72.81;98747.22;6292022;22;20010;-87
2022/04/16 01:54:41;;;;;;;8.07;5.90;;;;;;;9.67;72.89;98750.50;6316749;22;20014;-88
2022/04/16 01:57:10;;;;;;;5.93;4.72;;;;;;;9.77;72.20;98742.59;6290675;22;20058;-87
2022/04/16 01:59:40;;;;;;;6.70;5.10;;;;;;;9.73;71.81;98725.41;6342812;22;20017;-87
2022/04/16 02:02:08;;;;;;;7.75;5.07;;;;;;;9.78;72.22;98733.94;6290659;22;20034;-87
2022/04/16 02:04:35;;;;;;;7.07;4.40;;;;;;;9.81;72.04;98746.84;6290377;22;20007;-88
2022/04/16 02:07:01;;;;;;;7.20;4.97;;;;;;;9.82;71.79;98733.88;6289888;22;20029;-87
2022/04/16 02:09:30;;;;;;;6.65;5.15;;;;;;;9.78;71.27;98747.75;6290986;22;20022;-88
2022/04/16 02:12:03;;;;;;;7.15;5.65;;;;;;;9.80;71.67;98737.34;6290614;22;20034;-90
2022/04/16 02:14:39;;;;;;;6.93;5.45;;;;;;;9.81;71.58;98754.63;6292907;22;20018;-88
2022/04/16 02:17:19;;;;;;;6.95;5.88;;;;;;;9.62;71.67;98743.66;6320315;22;20003;-89
2022/04/16 02:19:48;;;;;;;7.35;5.88;;;;;;;9.50;72.77;98736.09;6290590;22;20019;-86
2022/04/16 02:22:16;;;;;;;8.35;6.45;;;;;;;9.45;73.11;98737.91;6291725;22;20007;-86
2022/04/16 02:24:46;;;;;;;11.02;7.28;;;;;;;9.22;72.94;98705.44;6268037;22;20025;-88
2022/04/16 02:30:08;;;;;;;9.02;6.35;;;;;;;9.34;72.69;98745.78;6219226;22;20013;-87
2022/04/16 02:35:45;;;;;;;7.43;5.95;;;;;;;9.22;74.03;98717.53;6239786;22;20375;-88
2022/04/16 02:38:18;;;;;;;8.82;6.03;;;;;;;9.19;73.89;98709.78;6195168;22;20007;-87
2022/04/16 02:40:44;;;;;;;8.20;6.72;;;;;;;9.04;72.71;98708.28;6195471;22;20355;-87
2022/04/16 02:43:34;;;;;;;7.07;5.65;;;;;;;9.22;73.16;98710.59;6203717;22;20007;-87
2022/04/16 02:48:48;;;;;;;6.65;5.25;;;;;;;9.64;73.18;98745.38;6200646;23;20023;-87
2022/04/16 02:51:14;;;;;;;7.78;5.45;;;;;;;9.69;72.13;98737.53;6193943;22;20012;-86
2022/04/16 02:53:44;;;;;;;7.28;5.80;;;;;;;9.85;70.61;98746.78;6216897;23;20008;-88
2022/04/16 02:56:10;;;;;;;8.10;5.70;;;;;;;9.73;70.05;98738.34;6193475;22;20031;-86
2022/04/16 02:58:40;;;;;;;8.20;5.97;;;;;;;9.62;70.77;98748.84;6347930;22;20016;-87
2022/04/16 03:01:08;;;;;;;9.00;5.70;;;;;;;9.58;71.50;98745.47;6217233;22;20016;-88
2022/04/16 03:03:34;;;;;;;8.25;5.57;;;;;;;9.58;71.76;98750.66;6296671;22;20057;-89
2022/04/16 03:06:03;;;;;;;5.80;4.68;;;;;;;9.62;71.46;98749.72;6321765;22;20008;-87
2022/04/16 03:08:30;;;;;;;9.05;6.57;;;;;;;9.59;71.09;98752.34;6217490;23;20072;-88
2022/04/16 03:10:58;;;;;;;6.93;4.97;;;;;;;9.58;70.41;98747.22;6167600;22;20012;-86
2022/04/16 03:13:28;;;;;;;6.95;4.90;;;;;;;9.70;71.00;98759.09;6193295;23;20022;-86
2022/04/16 03:18:54;;;;;;;6.47;4.93;;;;;;;9.76;70.60;98759.88;6334600;22;20069;-87
2022/04/16 03:21:22;;;;;;;7.10;5.10;;;;;;;9.92;69.52;98769.09;6193142;23;20020;-88
2022/04/16 03:23:49;;;;;;;5.95;4.90;;;;;;;9.96;69.03;98772.50;6321855;22;20024;-86
2022/04/16 03:26:15;;;;;;;6.22;4.95;;;;;;;9.75;68.72;98754.69;6167919;23;20045;-86
2022/04/16 03:28:42;;;;;;;8.20;6.15;;;;;;;9.71;69.26;98769.41;6193226;22;20023;-86
2022/04/16 03:31:11;;;;;;;8.50;6.22;;;;;;;9.59;70.04;98762.72;6217575;23;20020;-84
2022/04/16 03:33:38;;;;;;;7.00;5.10;;;;;;;9.67;70.44;98767.78;6166981;23;20037;-87
2022/04/16 03:36:04;;;;;;;6.47;5.03;;;;;;;9.68;69.63;98765.16;6167172;23;20019;-86
2022/04/16 03:38:31;;;;;;;5.15;4.35;;;;;;;9.73;69.88;98765.09;6168431;23;20023;-87
2022/04/16 03:40:57;;;;;;;5.18;4.40;;;;;;;9.58;70.38;98745.47;6192102;23;20032;-87
2022/04/16 03:43:29;;;;;;;;;;;;;;;9.94;69.23;98774.25;6192716;23;20020;-89
2022/04/16 03:45:56;;;;;;;4.72;3.40;;;;;;;9.92;68.70;98770.84;6217289;22;19900;-87
2022/04/16 03:48:22;;;;;;;6.03;4.90;;;;;;;9.88;67.96;98758.81;6218441;22;20012;-87
2022/04/16 03:50:50;;;;;;;6.25;4.07;;;;;;;9.97;68.02;98763.84;6218561;22;20026;-88
2022/04/16 03:53:18;;;;;;;6.18;4.45;;;;;;;9.89;67.98;98765.69;6192732;23;20008;-86
2022/04/16 04:01:19;;;;;;;5.93;5.00;;;;;;;9.73;68.16;98743.53;6200213;23;20000;-90
2022/04/16 04:03:46;;;;;;;5.35;3.88;;;;;;;9.72;67.84;98763.38;6194685;23;19995;-89
2022/04/16 04:06:14;;;;;;;4.72;3.35;;;;;;;9.81;69.38;98776.19;6218858;23;20073;-87
2022/04/16 04:08:40;;;;;;;3.72;3.22;;;;;;;9.74;68.12;98758.19;6169192;23;19988;-87
2022/04/16 04:11:07;;;;;;;3.90;3.10;;;;;;;9.95;68.07;98765.63;6193360;22;20019;-87
2022/04/16 04:13:35;;;;;;;3.85;3.13;;;;;;;9.90;66.76;98759.66;6217576;23;20019;-87
2022/04/16 04:16:02;;;;;;;4.55;2.70;;;;;;;9.88;67.58;98759.66;6192194;23;20020;-87
2022/04/16 04:18:28;;;;;;;4.43;3.47;;;;;;;9.62;66.62;98735.91;6267231;22;20053;-86
2022/04/16 04:20:56;;;;;;;4.03;3.17;;;;;;;9.57;67.22;98732.53;6288323;22;20006;-87
2022/04/16 04:23:22;;;;;;;3.95;3.15;;;;;;;9.57;66.83;98732.53;6341906;22;19987;-86
2022/04/16 04:25:50;;;;;;;4.15;3.45;;;;;;;9.67;67.03;98752.25;6287933;22;20069;-86
2022/04/16 04:28:16;;;;;;;;;;;;;;;9.84;66.89;98772.69;6261964;22;20003;-86
2022/04/16 04:30:44;;;;;;;3.55;2.80;;;;;;;9.56;67.90;98739.44;6335425;22;19915;-87
2022/04/16 04:33:10;;;;;;;4.30;3.25;;;;;;;9.82;66.82;98779.66;6256922;22;20017;-87
2022/04/16 04:35:36;;;;;;;4.13;3.22;;;;;;;9.70;67.18;98785.00;6282654;22;20019;-88
2022/04/16 04:38:04;;;;;;;3.90;3.03;;;;;;;9.65;67.75;98772.97;6287015;22;20026;-86
2022/04/16 04:40:32;;;;;;;3.25;2.67;;;;;;;9.56;67.05;98730.81;6287153;22;20003;-87
2022/04/16 04:42:57;;;;;;;3.80;2.50;;;;;;;9.90;66.43;98762.25;6282002;22;20023;-87
2022/04/16 04:45:27;;;;;;;4.65;2.80;;;;;;;10.05;65.83;98774.09;6309000;22;20023;-88
2022/04/16 04:47:56;;;;;;;3.60;2.67;;;;;;;9.86;65.66;98758.84;6288513;22;20039;-87
2022/04/16 04:50:24;;;;;;;4.18;3.17;;;;;;;9.82;65.64;98756.34;6283511;22;20037;-88
2022/04/16 04:52:51;;;;;;;4.13;3.05;;;;;;;9.67;65.99;98745.34;6286674;22;19994;-87
2022/04/16 04:55:20;;;;;;;3.95;3.05;;;;;;;9.79;66.21;98777.09;6284109;22;20019;-87
2022/04/16 04:57:46;;;;;;;3.67;2.67;;;;;;;9.52;66.09;98745.53;6286392;22;20046;-87
2022/04/16 05:00:16;;;;;;;3.90;3.17;;;;;;;9.58;66.62;98758.41;6310609;22;20007;-88
2022/04/16 05:03:07;;;;;;;4.32;2.90;;;;;;;9.65;66.85;98785.06;6287287;22;20045;-87
2022/04/16 05:05:40;;;;;;;5.82;3.65;;;;;;;9.57;66.98;98782.56;6341198;22;19995;-89
2022/04/16 05:08:11;;;;;;;4.30;3.30;;;;;;;9.32;67.80;98778.63;6283903;22;20019;-88
2022/04/16 05:10:39;;;;;;;4.72;3.50;;;;;;;9.22;68.24;98779.63;6259834;22;20018;-89
2022/04/16 05:13:06;;;;;;;4.03;3.40;;;;;;;9.14;69.31;98775.38;6257864;22;20015;-86
2022/04/16 05:15:34;;;;;;;4.20;3.63;;;;;;;9.13;68.98;98778.84;6256736;22;20019;-88
2022/04/16 05:17:59;;;;;;;3.90;3.17;;;;;;;9.22;68.93;98777.03;6282037;22;20003;-89
2022/04/16 05:20:25;;;;;;;;;;;;;;;9.35;68.43;98787.22;6282401;22;20049;-90
2022/04/16 05:22:51;;;;;;;4.45;3.75;;;;;;;9.16;68.43;98770.19;6285615;22;19921;-88
2022/04/16 05:25:17;;;;;;;6.40;5.65;;;;;;;9.11;68.63;98774.56;6284311;22;20006;-86
2022/04/16 05:27:45;;;;;;;5.38;4.28;;;;;;;8.87;68.56;98762.78;6282547;22;20019;-86
2022/04/16 05:30:13;;;;;;;5.95;3.72;;;;;;;8.88;69.87;98777.44;6304479;22;20019;-87
2022/04/16 05:32:49;;;;;;;5.63;4.32;;;;;;;8.80;69.64;98780.13;6280245;22;19999;-84
2022/04/16 05:35:16;;;;;;;5.78;3.97;;;;;;;8.76;70.68;98769.81;6260626;22;20462;-84
2022/04/16 05:37:44;;;;;;;3.58;2.75;;;;;;;8.88;70.86;98767.06;6278666;22;19999;-87
2022/04/16 05:40:30;;;;;;;4.85;3.80;;;;;;;8.93;69.98;98775.63;6312672;22;19999;-87
2022/04/16 05:42:58;;;;;;;4.18;3.35;;;;;;;8.68;69.56;98741.47;6304397;22;20023;-87
2022/04/16 05:45:24;;;;;;;4.75;3.90;;;;;;;9.01;69.57;98780.72;6356441;22;20040;-83
2022/04/16 05:47:49;;;;;;;;;;;;;;;9.12;69.03;98787.50;6332433;22;20034;-83
2022/04/16 05:50:15;;;;;;;4.00;3.28;;;;;;;8.77;68.45;98745.66;6335700;22;19982;-84
2022/04/16 05:52:41;;;;;;;;;;;;;;;9.09;69.37;98789.25;6360964;22;20011;-84
2022/04/16 05:55:08;;;;;;;5.00;3.75;;;;;;;8.80;68.96;98750.81;6362365;22;19919;-87
2022/04/16 05:57:35;;;;;;;4.80;3.95;;;;;;;8.83;69.77;98780.06;6310252;22;20029;-87
2022/04/16 06:00:13;;;;;;;5.13;4.32;;;;;;;8.72;69.50;98747.47;6310631;22;20033;-87
2022/04/16 06:02:42;;;;;;;4.80;4.18;;;;;;;8.57;69.15;98771.75;6339765;22;20023;-86
2022/04/16 06:05:10;;;;;;;4.97;4.05;;;;;;;8.58;70.06;98769.16;6337768;22;19999;-86
2022/04/16 06:07:36;;;;;;;3.95;3.40;;;;;;;8.45;71.11;98752.03;6308513;22;20007;-88
2022/04/16 06:10:03;;;;;;;4.85;3.88;;;;;;;8.80;69.36;98766.34;6308974;22;20025;-86
2022/04/16 06:12:29;;;;;;;5.65;4.22;;;;;;;8.67;68.60;98763.03;6334383;22;19983;-87
2022/04/16 06:14:56;;;;;;;6.07;4.50;;;;;;;8.59;69.98;98775.16;6285281;22;20021;-88
2022/04/16 06:17:22;;;;;;;5.13;4.47;;;;;;;8.36;71.35;98771.06;6328255;22;20014;-82
2022/04/16 06:19:49;;;;;;;7.72;4.53;;;;;;;8.55;72.49;98797.59;6309276;22;20010;-87
2022/04/16 06:22:16;;;;;;;4.40;3.13;;;;;;;8.85;72.07;98790.41;6310881;22;20007;-86
2022/04/16 06:24:43;;;;;;;5.32;4.38;;;;;;;8.87;70.13;98783.47;6337511;22;20029;-86
2022/04/16 06:27:09;;;;;;;;;;;;;;;9.08;69.99;98792.72;6286345;22;19999;-87
2022/04/16 06:29:37;;;;;;;6.00;4.20;;;;;;;8.96;69.39;98780.78;6336965;22;19933;-87
2022/04/16 06:32:04;;;;;;;6.60;5.03;;;;;;;8.95;68.83;98788.56;6283406;22;20014;-85
2022/04/16 06:34:30;;;;;;;6.03;5.00;;;;;;;8.94;69.62;98797.22;6309946;22;20093;-86
2022/04/16 06:36:59;;;;;;;6.00;4.68;;;;;;;8.80;69.56;98793.03;6283350;22;20384;-85
2022/04/16 06:39:25;;;;;;;6.75;5.00;;;;;;;8.62;70.28;98782.91;6332615;22;20343;-85
2022/04/16 06:41:52;;;;;;;5.10;4.40;;;;;;;8.63;71.16;98784.59;6241147;23;20021;-84
2022/04/16 06:44:20;;;;;;;5.03;4.18;;;;;;;8.69;71.40;98796.59;6127885;23;20032;-87
2022/04/16 06:46:46;;;;;;;;;;;;;;;8.85;70.89;98793.00;6102798;23;20104;-86
2022/04/16 06:49:13;;;;;;;6.20;3.95;;;;;;;9.02;70.29;98795.38;6175723;23;19916;-84
2022/04/16 06:51:39;;;;;;;;;;;;;;;9.18;69.28;98790.88;6130571;23;20005;-86
2022/04/16 06:54:07;;;;;;;6.28;5.60;;;;;;;9.12;68.44;98792.69;6180347;23;19931;-87
2022/04/16 06:56:35;;;;;;;6.03;5.00;;;;;;;9.06;68.34;98787.56;6129821;23;20057;-84
2022/04/16 06:59:01;;;;;;;6.20;4.30;;;;;;;9.08;68.93;98793.59;6128780;23;20017;-85
2022/04/16 07:01:27;;;;;;;6.00;4.20;;;;;;;8.96;69.14;98785.09;6126858;23;20013;-84
2022/04/16 07:03:55;;;;;;;5.57;4.18;;;;;;;9.09;68.82;98808.22;6128507;23;20088;-86
2022/04/16 07:06:22;;;;;;;5.60;4.47;;;;;;;9.01;68.30;98791.94;6103344;23;20012;-86
2022/04/16 07:08:54;;;;;;;5.70;4.30;;;;;;;8.99;68.98;98791.09;6130001;23;20021;-87
2022/04/16 07:11:45;;;;;;;6.72;4.28;;;;;;;8.93;68.75;98775.63;6354944;22;20002;-87
2022/04/16 07:14:11;;;;;;;5.72;4.35;;;;;;;8.75;69.03;98787.06;6312811;22;20015;-86
2022/04/16 07:16:37;;;;;;;4.90;3.83;;;;;;;8.92;69.53;98797.22;6336665;22;20033;-86
2022/04/16 07:19:04;;;;;;;7.68;4.45;;;;;;;8.70;69.08;98762.13;6361862;22;20029;-87
2022/04/16 07:21:32;;;;;;;6.05;4.40;;;;;;;8.68;68.19;98748.38;6309961;22;20028;-86
2022/04/16 07:23:58;;;;;;;6.85;4.85;;;;;;;8.49;67.97;98743.38;6310083;22;20045;-87
2022/04/16 07:26:24;;;;;;;6.50;4.85;;;;;;;8.74;67.89;98774.13;6286188;22;19991;-86
2022/04/16 07:28:51;;;;;;;6.32;4.65;;;;;;;8.56;68.68;98739.84;6303616;22;20021;-87
2022/04/16 07:31:17;;;;;;;10.15;8.18;;;;;;;8.94;68.10;98782.56;6313310;22;20019;-86
2022/04/16 07:33:43;;;;;;;7.85;5.25;;;;;;;9.01;66.86;98779.00;6284020;22;20015;-84
2022/04/16 07:36:09;;;;;;;;;;;;;;;9.41;66.76;98799.22;6284572;22;20011;-86
2022/04/16 07:38:36;;;;;;;6.28;4.55;;;;;;;9.04;66.15;98768.63;6333699;22;19960;-86
2022/04/16 07:41:03;;;;;;;5.68;4.47;;;;;;;9.14;66.82;98797.81;6310847;22;20103;-86
2022/04/16 07:43:29;;;;;;;5.90;4.43;;;;;;;9.18;67.64;98798.66;6308500;22;20019;-84
2022/04/16 07:45:56;;;;;;;6.40;4.50;;;;;;;9.15;67.82;98790.03;6283868;22;19983;-84
2022/04/16 07:48:22;;;;;;;5.47;4.10;;;;;;;9.15;67.48;98797.78;6284817;22;20354;-84
2022/04/16 07:50:49;;;;;;;5.75;3.97;;;;;;;9.08;67.69;98791.00;6287258;22;19990;-88
2022/04/16 07:53:16;;;;;;;5.85;5.25;;;;;;;9.12;66.46;98804.75;6283206;22;20109;-85
2022/04/16 07:55:43;;;;;;;7.60;5.95;;;;;;;8.72;67.43;98786.25;6281723;22;20022;-85
2022/04/16 07:58:10;;;;;;;5.82;4.57;;;;;;;9.03;67.35;98808.31;6282830;22;20018;-87
2022/04/16 08:00:38;;;;;;;6.93;4.80;;;;;;;9.22;66.69;98800.31;6309244;22;19998;-88
2022/04/16 08:03:04;;;;;;;6.72;4.60;;;;;;;9.41;66.41;98812.16;6282302;22;20063;-83
2022/04/16 08:05:31;;;;;;;6.85;4.78;;;;;;;9.21;65.91;98793.41;6256503;22;20028;-87
2022/04/16 08:07:57;;;;;;;6.18;5.07;;;;;;;9.12;65.89;98808.19;6310156;22;20074;-85
2022/04/16 08:10:27;;;;;;;9.85;6.55;;;;;;;9.00;66.94;98817.81;6259151;22;20003;-88
2022/04/16 08:12:53;;;;;;;7.63;5.70;;;;;;;9.00;67.59;98816.09;6308624;22;20019;-86
2022/04/16 08:15:31;;;;;;;6.70;5.80;;;;;;;8.99;67.19;98810.94;6284115;22;20014;-86
2022/04/16 08:17:58;;;;;;;7.63;6.13;;;;;;;8.88;67.58;98798.13;6303907;22;20076;-83
2022/04/16 08:20:26;;;;;;;6.18;5.10;;;;;;;8.80;67.26;98789.59;6277828;22;20081;-85
2022/04/16 08:22:53;;;;;;;7.05;5.35;;;;;;;8.90;67.09;98811.91;6278303;22;20015;-85
2022/04/16 08:27:49;;;;;;;8.77;6.70;;;;;;;8.58;68.54;98809.66;6279537;22;20018;-86
2022/04/16 08:30:15;;;;;;;9.48;6.97;;;;;;;8.70;67.67;98819.84;6204901;22;20076;-86
2022/04/16 08:32:43;;;;;;;7.15;5.82;;;;;;;8.59;68.07;98809.63;6307920;22;19995;-85
2022/04/16 08:35:09;;;;;;;7.07;5.63;;;;;;;8.64;67.92;98817.34;6179295;22;20095;-85
2022/04/16 08:37:36;;;;;;;6.60;5.15;;;;;;;8.75;66.92;98812.03;6181987;22;20030;-86
2022/04/16 08:40:05;;;;;;;5.97;5.22;;;;;;;8.80;66.67;98825.81;6184128;22;20499;-85
2022/04/16 08:42:36;;;;;;;7.40;4.53;;;;;;;8.91;66.38;98827.41;6181061;22;19994;-87
2022/04/16 08:45:07;;;;;;;6.55;5.20;;;;;;;8.94;66.20;98841.19;6181479;22;20007;-85
2022/04/16 08:47:38;;;;;;;7.53;5.53;;;;;;;8.74;66.00;98837.06;6181633;22;20015;-86
2022/04/16 08:50:07;;;;;;;11.52;8.68;;;;;;;8.67;66.94;98850.06;6179985;22;20062;-84
2022/04/16 08:52:35;;;;;;;9.82;6.10;;;;;;;8.54;67.44;98850.19;6206598;22;20049;-89
2022/04/16 08:55:04;;;;;;;9.68;5.55;;;;;;;8.42;67.79;98845.09;6181766;22;20009;-88
2022/04/16 08:57:31;;;;;;;8.25;5.22;;;;;;;8.19;67.91;98831.47;6180773;22;19999;-88
2022/04/16 08:59:57;;;;;;;7.15;5.88;;;;;;;8.42;67.42;98845.09;6155321;22;20421;-85
2022/04/16 09:02:26;;;;;;;8.02;5.32;;;;;;;8.54;67.02;98859.66;6179017;22;20019;-85
2022/04/16 09:05:10;;;;;;;6.18;5.05;;;;;;;8.50;67.14;98874.34;6157331;22;19994;-87
2022/04/16 09:07:45;;;;;;;6.05;4.45;;;;;;;8.51;67.40;98868.28;6185094;22;20010;-88
2022/04/16 09:10:11;;;;;;;6.18;4.68;;;;;;;8.58;66.77;98854.44;6238523;22;20027;-87
2022/04/16 09:12:38;;;;;;;;;;;;;;;8.89;66.14;98869.69;6276332;22;20046;-87
2022/04/16 09:15:09;;;;;;;5.22;3.88;;;;;;;8.78;65.87;98848.22;6275143;22;19926;-88
2022/04/16 09:17:37;;;;;;;5.63;4.25;;;;;;;8.96;65.27;98863.56;6248359;22;20307;-88
2022/04/16 09:22:53;;;;;;;6.60;5.18;;;;;;;8.87;63.59;98820.53;6230411;22;20028;-85
2022/04/16 09:25:20;;;;;;;7.35;4.20;;;;;;;9.02;63.27;98841.94;6296814;22;20014;-87
2022/04/16 09:27:49;;;;;;;5.07;3.90;;;;;;;8.91;62.36;98829.97;6292594;22;20025;-88
2022/04/16 09:32:52;;;;;;;6.07;5.07;;;;;;;9.02;62.56;98897.13;6392799;22;20030;-87
2022/04/16 09:35:32;;;;;;;6.55;5.10;;;;;;;8.70;63.44;98881.06;6341170;22;20002;-88
2022/04/16 09:38:00;;;;;;;5.70;4.85;;;;;;;8.69;63.88;98907.78;6342131;22;20020;-85
2022/04/16 09:40:29;;;;;;;6.85;6.15;;;;;;;8.26;63.46;98883.09;6311093;22;20058;-84
2022/04/16 09:42:57;;;;;;;6.90;5.20;;;;;;;8.34;63.41;98873.59;6388928;22;20010;-86
2022/04/16 09:45:23;;;;;;;7.45;5.43;;;;;;;8.33;63.33;98902.84;6339891;22;20002;-88
2022/04/16 09:47:50;;;;;;;;;;;;;;;8.53;63.17;98915.69;6317399;22;20061;-86
2022/04/16 09:50:22;;;;;;;6.65;5.00;;;;;;;8.36;63.73;98926.13;6340953;22;19931;-89
2022/04/16 09:52:52;;;;;;;6.80;5.65;;;;;;;8.14;64.10;98916.78;6287964;22;20014;-85
2022/04/16 09:55:21;;;;;;;4.97;3.88;;;;;;;8.23;64.87;98931.34;6338823;22;20506;-86
2022/04/16 09:57:57;;;;;;;5.65;5.05;;;;;;;8.21;63.97;98933.09;6315973;22;20010;-87
2022/04/16 10:00:24;;;;;;;5.70;4.27;;;;;;;8.15;64.32;98915.91;6318738;22;20061;-86
2022/04/16 10:02:53;;;;;;;7.70;4.50;;;;;;;8.21;64.12;98926.22;6318068;22;20022;-87
2022/04/16 10:05:23;;;;;;;4.45;3.60;;;;;;;8.29;63.67;98944.22;6321700;22;20002;-91
2022/04/16 10:08:16;;;;;;;7.57;4.30;;;;;;;8.20;62.50;98926.19;6339744;22;20002;-90
2022/04/16 10:10:46;;;;;;;4.70;3.85;;;;;;;8.01;63.34;98938.38;6295106;22;20018;-87
2022/04/16 10:13:15;;;;;;;5.28;4.35;;;;;;;7.91;64.18;98924.66;6342226;22;20018;-88
2022/04/16 10:15:57;;;;;;;5.32;4.82;;;;;;;7.92;64.16;98965.09;6321724;22;20021;-85
2022/04/16 10:18:24;;;;;;;4.95;4.25;;;;;;;7.37;65.07;98937.75;6343603;22;20018;-87
2022/04/16 10:20:54;;;;;;;13.70;9.20;;;;;;;7.34;66.14;98953.28;6317761;22;20002;-88
2022/04/16 10:23:31;;;;;;;5.05;3.70;;;;;;;7.48;65.98;98939.47;6342365;22;20045;-87
2022/04/16 10:26:11;;;;;;;4.03;3.38;;;;;;;7.71;64.56;98958.31;6309075;22;20026;-84
2022/04/16 10:28:57;;;;;;;4.03;2.97;;;;;;;7.57;64.49;98955.78;6340439;22;20014;-86
2022/04/16 10:31:28;;;;;;;4.15;3.30;;;;;;;7.38;64.99;98959.28;6318524;22;20014;-86
2022/04/16 10:34:03;;;;;;;3.75;2.95;;;;;;;7.43;65.47;98980.78;6313420;22;20018;-84
2022/04/16 10:36:32;;;;;;;3.75;2.72;;;;;;;7.30;65.96;98961.03;6323335;22;20689;-88
2022/04/16 10:39:22;;;;;;;4.50;3.03;;;;;;;7.58;65.75;98985.03;6284831;22;20101;-84
2022/04/16 10:41:58;;;;;;;3.83;2.40;;;;;;;7.87;64.86;98992.66;6296948;22;20040;-88
2022/04/16 10:44:26;;;;;;;4.80;2.20;;;;;;;7.94;63.77;98990.94;6310916;22;20011;-85
2022/04/16 10:46:55;;;;;;;3.67;2.90;;;;;;;8.10;63.35;98967.59;6338633;22;20027;-87
2022/04/16 10:49:23;;;;;;;8.45;6.15;;;;;;;8.37;62.40;98996.75;6285855;22;20026;-86
2022/04/16 10:51:50;;;;;;;3.45;2.60;;;;;;;8.11;60.88;99008.09;6309322;22;20501;-87
2022/04/16 10:54:30;;;;;;;3.70;2.88;;;;;;;7.80;62.35;98985.81;6282607;22;19995;-86
2022/04/16 10:56:57;;;;;;;3.40;2.15;;;;;;;7.90;64.09;99001.25;6285344;22;20397;-89
2022/04/16 10:59:56;;;;;;;4.82;2.75;;;;;;;7.88;62.27;99007.31;6285732;22;20009;-88
2022/04/16 11:02:27;;;;;;;4.60;3.47;;;;;;;7.76;62.95;99002.19;6288091;22;20034;-87
2022/04/16 11:05:00;;;;;;;4.93;3.33;;;;;;;7.55;63.79;98997.94;6286816;22;20025;-86
2022/04/16 11:07:38;;;;;;;4.05;2.92;;;;;;;7.73;64.07;99012.50;6287097;22;20014;-87
2022/04/16 11:10:06;;;;;;;3.95;2.55;;;;;;;7.42;63.46;99002.25;6337629;22;20015;-86
2022/04/16 11:12:32;;;;;;;4.05;2.70;;;;;;;7.71;63.67;99003.94;6310991;22;20003;-87
2022/04/16 11:15:00;;;;;;;5.30;3.90;;;;;;;7.76;62.88;99022.84;6284766;22;20017;-84
2022/04/16 11:17:27;;;;;;;3.80;2.70;;;;;;;7.63;63.17;98999.63;6286241;22;20003;-88
2022/04/16 11:20:05;;;;;;;4.35;2.20;;;;;;;8.03;63.17;99020.16;6284051;22;20007;-86
2022/04/16 11:22:32;;;;;;;5.03;2.40;;;;;;;8.18;62.35;99008.91;6283556;22;19999;-86
2022/04/16 11:25:01;;;;;;;3.50;2.40;;;;;;;8.45;62.01;99026.00;6284239;22;20002;-87
2022/04/16 11:35:54;;;;;;;3.63;2.60;;;;;;;7.99;62.95;99028.78;6298664;22;20042;-86
2022/04/16 11:38:29;;;;;;;3.45;2.55;;;;;;;8.03;63.12;99029.63;6297039;22;20016;-85
2022/04/16 11:40:59;;;;;;;3.53;2.50;;;;;;;8.01;62.88;99027.03;6298797;22;20020;-82
2022/04/16 11:43:28;;;;;;;3.72;2.53;;;;;;;7.61;61.66;99022.03;6241730;22;20019;-84
2022/04/16 11:45:55;;;;;;;3.40;2.20;;;;;;;7.68;61.81;99035.75;6245298;22;20007;-84
2022/04/16 11:48:22;;;;;;;3.33;2.05;;;;;;;7.79;62.63;99039.19;6245589;22;20043;-85
2022/04/16 11:50:48;;;;;;;3.10;2.13;;;;;;;7.78;61.94;99027.13;6223314;22;20090;-87
2022/04/16 11:53:14;;;;;;;;;;;;;;;8.10;62.05;99055.41;6223978;22;20034;-86
2022/04/16 11:55:45;;;;;;;3.88;2.30;;;;;;;7.94;62.00;99048.59;6270252;22;19918;-85
2022/04/16 11:58:12;;;;;;;2.85;2.00;;;;;;;8.11;61.85;99058.88;6244362;22;20035;-86
2022/04/16 12:00:55;;;;;;;3.97;2.33;;;;;;;8.15;61.71;99060.56;6246474;22;20083;-88
2022/04/16 12:03:22;;;;;;;4.13;2.10;;;;;;;7.94;61.71;99024.50;6256456;22;20095;-87
2022/04/16 12:05:48;;;;;;;3.03;2.13;;;;;;;8.28;61.28;99053.63;6212213;23;20046;-85
2022/04/16 12:08:17;;;;;;;3.53;2.00;;;;;;;8.42;59.95;99053.59;6238554;23;20075;-87
2022/04/16 12:10:45;;;;;;;6.40;1.88;;;;;;;8.57;58.85;99056.13;6265188;23;20015;-83
2022/04/16 12:13:12;;;;;;;2.50;1.75;;;;;;;8.68;58.98;99066.38;6189241;22;20012;-86
2022/04/16 12:15:45;;;;;;;3.35;1.83;;;;;;;8.43;58.62;99053.59;6237898;23;20015;-84
2022/04/16 12:18:15;;;;;;;3.83;2.08;;;;;;;8.47;59.35;99072.53;6190537;23;20433;-85
2022/04/16 12:20:48;;;;;;;3.25;2.00;;;;;;;8.54;60.00;99079.38;6211952;23;20016;-85
2022/04/16 12:23:22;;;;;;;3.25;2.03;;;;;;;8.42;59.10;99075.13;6190889;23;20072;-88
2022/04/16 12:26:01;;;;;;;2.65;1.85;;;;;;;8.09;58.77;99058.03;6190349;23;20024;-85
2022/04/16 12:28:28;;;;;;;;;;;;;;;8.34;59.12;99082.91;6164410;23;20019;-86
2022/04/16 12:30:54;;;;;;;;;;;;;;;8.26;59.44;99079.50;6265638;23;19940;-87
2022/04/16 12:33:25;;;;;;;3.00;1.83;;;;;;;8.09;59.73;99071.78;6263199;23;19911;-85
2022/04/16 12:35:55;;;;;;;2.60;1.90;;;;;;;7.87;60.85;99085.63;6188696;23;20019;-84